Time;durP1;ratioP1;P1;durP2;ratioP2;P2;SDS_P1;SDS_P2;PMS_P1;PMS_P2;Temp;Humidity;BMP_temperature;BMP_pressure;BME280_temperature;BME280_humidity;BME280_pressure;Samples;Min_cycle;Max_cycle;Signal;HPM_P1;HPM_P2
2022/03/21 00:02:11;;;;;;;0.40;0.40;;;;;;;;;;5091479;28;20260;-78
2022/03/21 00:04:39;;;;;;;0.10;0.10;;;;;;;;;;5102978;28;20205;-78
2022/03/21 00:07:05;;;;;;;0.57;0.57;;;;;;;;;;5091491;28;20514;-78
2022/03/21 00:09:32;;;;;;;0.20;0.20;;;;;;;;;;5102986;28;20203;-78
2022/03/21 00:11:58;;;;;;;0.17;0.17;;;;;;;;;;5091414;28;20295;-78
2022/03/21 00:14:25;;;;;;;20.50;4.13;;;;;;;;;;5102942;28;20197;-78
2022/03/21 00:16:51;;;;;;;2.37;2.30;;;;;;;;;;5091605;28;20267;-78
2022/03/21 00:19:18;;;;;;;0.20;0.20;;;;;;;;;;5102655;28;20236;-77
2022/03/21 00:21:45;;;;;;;0.20;0.20;;;;;;;;;;5091741;28;20308;-79
2022/03/21 00:24:12;;;;;;;0.10;0.10;;;;;;;;;;5102632;28;20205;-79
2022/03/21 00:26:38;;;;;;;0.30;0.30;;;;;;;;;;5091431;28;20241;-78
2022/03/21 00:29:04;;;;;;;0.20;0.20;;;;;;;;;;5103890;28;20426;-78
2022/03/21 00:31:31;;;;;;;0.53;0.53;;;;;;;;;;5095533;28;20347;-78
2022/03/21 00:33:57;;;;;;;0.73;0.73;;;;;;;;;;5106058;28;20274;-77
2022/03/21 00:36:23;;;;;;;2.17;2.07;;;;;;;;;;5095632;28;20240;-78
2022/03/21 00:38:53;;;;;;;0.10;0.10;;;;;;;;;;5106497;28;20216;-77
2022/03/21 00:41:20;;;;;;;0.10;0.10;;;;;;;;;;5095597;28;20495;-78
2022/03/21 00:43:47;;;;;;;0.10;0.10;;;;;;;;;;5106051;28;20202;-78
2022/03/21 00:46:14;;;;;;;0.10;0.10;;;;;;;;;;5095407;28;20290;-78
2022/03/21 00:48:41;;;;;;;6.03;2.53;;;;;;;;;;5106210;28;20204;-77
2022/03/21 00:51:07;;;;;;;0.17;0.17;;;;;;;;;;5095296;28;20311;-78
2022/03/21 00:53:33;;;;;;;0.20;0.20;;;;;;;;;;5106106;28;20275;-78
2022/03/21 00:56:02;;;;;;;1.07;1.07;;;;;;;;;;5094769;28;20241;-79
2022/03/21 00:58:28;;;;;;;0.10;0.10;;;;;;;;;;5105601;28;20208;-78
2022/03/21 01:00:55;;;;;;;0.30;0.30;;;;;;;;;;5095322;28;20252;-78
2022/03/21 01:03:22;;;;;;;0.13;0.13;;;;;;;;;;5105575;28;20209;-78
2022/03/21 01:05:48;;;;;;;0.10;0.10;;;;;;;;;;5077116;28;20249;-77
2022/03/21 01:08:15;;;;;;;0.40;0.40;;;;;;;;;;5105169;28;20206;-77
2022/03/21 01:10:41;;;;;;;0.10;0.10;;;;;;;;;;5095276;28;20548;-78
2022/03/21 01:13:10;;;;;;;0.10;0.10;;;;;;;;;;5105647;28;20567;-79
2022/03/21 01:15:36;;;;;;;0.10;0.10;;;;;;;;;;5094128;28;20245;-78
2022/03/21 01:18:02;;;;;;;0.43;0.43;;;;;;;;;;5105336;28;20217;-77
2022/03/21 01:20:29;;;;;;;0.40;0.40;;;;;;;;;;5095179;28;20275;-78
2022/03/21 01:22:55;;;;;;;0.10;0.10;;;;;;;;;;5105092;28;20213;-78
2022/03/21 01:25:22;;;;;;;0.10;0.10;;;;;;;;;;5095318;28;20280;-78
2022/03/21 01:27:48;;;;;;;0.10;0.10;;;;;;;;;;5105002;28;20386;-78
2022/03/21 01:30:16;;;;;;;0.10;0.10;;;;;;;;;;5095265;28;20204;-78
2022/03/21 01:32:43;;;;;;;0.20;0.20;;;;;;;;;;5104471;28;20210;-78
2022/03/21 01:35:10;;;;;;;0.20;0.20;;;;;;;;;;5095326;28;20250;-77
2022/03/21 01:37:37;;;;;;;0.20;0.20;;;;;;;;;;5104745;28;20208;-78
2022/03/21 01:40:03;;;;;;;3.70;3.60;;;;;;;;;;5105848;28;20226;-78
2022/03/21 01:42:29;;;;;;;0.20;0.20;;;;;;;;;;5093677;28;20285;-78
2022/03/21 01:44:58;;;;;;;0.20;0.20;;;;;;;;;;5105518;28;20205;-78
2022/03/21 01:47:26;;;;;;;0.20;0.20;;;;;;;;;;5093939;28;20286;-77
2022/03/21 01:50:02;;;;;;;10.53;9.43;;;;;;;;;;5105323;28;20494;-79
2022/03/21 01:52:31;;;;;;;1.33;1.33;;;;;;;;;;5093732;28;20239;-78
2022/03/21 01:57:41;;;;;;;0.10;0.10;;;;;;;;;;5055322;28;20218;-78
2022/03/21 02:00:08;;;;;;;0.60;0.60;;;;;;;;;;5094605;28;20228;-79
2022/03/21 02:02:35;;;;;;;0.20;0.20;;;;;;;;;;5104065;28;20209;-79
2022/03/21 02:05:02;;;;;;;1.47;1.37;;;;;;;;;;5105222;28;20384;-78
2022/03/21 02:07:28;;;;;;;0.30;0.30;;;;;;;;;;5093592;28;20235;-78
2022/03/21 02:09:55;;;;;;;0.20;0.20;;;;;;;;;;5104798;28;20209;-78
2022/03/21 02:12:22;;;;;;;1.10;1.10;;;;;;;;;;5093325;28;20244;-79
2022/03/21 02:14:48;;;;;;;0.10;0.10;;;;;;;;;;5104974;28;20472;-78
2022/03/21 02:17:19;;;;;;;0.20;0.20;;;;;;;;;;5093262;28;20260;-79
2022/03/21 02:19:48;;;;;;;0.20;0.20;;;;;;;;;;5104561;28;20229;-79
2022/03/21 02:22:23;;;;;;;1.80;1.80;;;;;;;;;;5093173;28;20247;-77
2022/03/21 02:24:53;;;;;;;0.10;0.10;;;;;;;;;;5105006;28;20209;-78
2022/03/21 02:27:21;;;;;;;0.20;0.20;;;;;;;;;;5093147;28;20315;-77
2022/03/21 02:29:48;;;;;;;0.20;0.20;;;;;;;;;;5104820;28;20210;-77
2022/03/21 02:32:15;;;;;;;8.23;1.37;;;;;;;;;;5093233;28;20244;-78
2022/03/21 02:34:41;;;;;;;0.17;0.17;;;;;;;;;;5104704;28;20227;-78
2022/03/21 02:37:09;;;;;;;0.20;0.20;;;;;;;;;;5093137;28;20425;-78
2022/03/21 02:39:36;;;;;;;4.13;3.93;;;;;;;;;;5104344;28;20332;-78
2022/03/21 02:42:02;;;;;;;0.50;0.50;;;;;;;;;;5092951;28;20305;-77
2022/03/21 02:44:34;;;;;;;0.17;0.17;;;;;;;;;;5104865;28;20412;-79
2022/03/21 02:47:00;;;;;;;0.77;0.77;;;;;;;;;;5092698;28;20306;-78
2022/03/21 02:49:26;;;;;;;0.20;0.20;;;;;;;;;;5104361;28;20209;-78
2022/03/21 02:51:53;;;;;;;0.30;0.30;;;;;;;;;;5092319;28;20246;-78
2022/03/21 02:54:21;;;;;;;0.87;0.87;;;;;;;;;;5103324;28;20240;-78
2022/03/21 02:56:47;;;;;;;0.27;0.27;;;;;;;;;;5092645;28;20238;-78
2022/03/21 02:59:13;;;;;;;0.20;0.20;;;;;;;;;;5103846;28;20298;-77
2022/03/21 03:01:41;;;;;;;0.23;0.23;;;;;;;;;;5092706;28;20246;-77
2022/03/21 03:04:08;;;;;;;0.20;0.20;;;;;;;;;;5103850;28;20337;-78
2022/03/21 03:06:34;;;;;;;0.20;0.20;;;;;;;;;;5092581;28;20456;-77
2022/03/21 03:09:00;;;;;;;0.20;0.20;;;;;;;;;;5103453;28;20213;-77
2022/03/21 03:11:27;;;;;;;0.20;0.20;;;;;;;;;;5092646;28;20238;-78
2022/03/21 03:13:53;;;;;;;0.10;0.10;;;;;;;;;;5103724;28;20202;-78
2022/03/21 03:16:19;;;;;;;0.20;0.20;;;;;;;;;;5092501;28;20506;-79
2022/03/21 03:18:47;;;;;;;0.20;0.20;;;;;;;;;;5103118;28;20510;-77
2022/03/21 03:21:15;;;;;;;0.40;0.40;;;;;;;;;;5092320;28;20481;-77
2022/03/21 03:23:41;;;;;;;0.20;0.20;;;;;;;;;;5103306;28;20226;-78
2022/03/21 03:26:07;;;;;;;7.53;7.00;;;;;;;;;;5092689;28;20434;-78
2022/03/21 03:28:34;;;;;;;0.30;0.30;;;;;;;;;;5103181;28;20226;-77
2022/03/21 03:31:00;;;;;;;0.20;0.20;;;;;;;;;;5092545;28;20235;-77
2022/03/21 03:33:30;;;;;;;1.50;1.50;;;;;;;;;;5102981;28;20198;-78
2022/03/21 03:35:58;;;;;;;0.10;0.10;;;;;;;;;;5092400;28;20249;-79
2022/03/21 03:38:24;;;;;;;0.57;0.57;;;;;;;;;;5102897;28;20212;-77
2022/03/21 03:40:50;;;;;;;0.20;0.20;;;;;;;;;;5092301;28;20241;-77
2022/03/21 03:43:17;;;;;;;0.40;0.40;;;;;;;;;;5102700;28;20291;-79
2022/03/21 03:45:43;;;;;;;0.20;0.20;;;;;;;;;;5092337;28;20242;-78
2022/03/21 03:48:10;;;;;;;10.70;10.13;;;;;;;;;;5102360;28;20247;-78
2022/03/21 03:50:36;;;;;;;0.60;0.60;;;;;;;;;;5092744;28;20496;-78
2022/03/21 03:53:04;;;;;;;0.77;0.67;;;;;;;;;;5102320;28;20240;-78
2022/03/21 03:55:30;;;;;;;0.20;0.20;;;;;;;;;;5092798;28;20259;-77
2022/03/21 03:57:56;;;;;;;0.20;0.20;;;;;;;;;;5102373;28;20199;-78
2022/03/21 04:00:23;;;;;;;0.20;0.20;;;;;;;;;;5092809;28;20229;-78
2022/03/21 04:05:34;;;;;;;0.20;0.20;;;;;;;;;;5096363;28;20262;-78
2022/03/21 04:08:00;;;;;;;10.00;5.10;;;;;;;;;;5106637;28;20469;-78
2022/03/21 04:10:28;;;;;;;0.20;0.20;;;;;;;;;;5096664;28;20480;-78
2022/03/21 04:12:55;;;;;;;0.20;0.20;;;;;;;;;;5106630;28;20236;-78
2022/03/21 04:15:21;;;;;;;3.80;3.70;;;;;;;;;;5096715;28;20246;-78
2022/03/21 04:17:48;;;;;;;0.20;0.20;;;;;;;;;;5106376;28;20388;-78
2022/03/21 04:20:15;;;;;;;0.30;0.30;;;;;;;;;;5096889;28;20298;-77
2022/03/21 04:22:41;;;;;;;0.20;0.20;;;;;;;;;;5106277;28;20448;-78
2022/03/21 04:25:10;;;;;;;0.50;0.50;;;;;;;;;;5096821;28;20394;-77
2022/03/21 04:27:38;;;;;;;0.47;0.47;;;;;;;;;;5106112;28;20241;-77
2022/03/21 04:30:05;;;;;;;0.20;0.20;;;;;;;;;;5103837;28;20219;-77
2022/03/21 04:32:31;;;;;;;0.87;0.73;;;;;;;;;;5106051;28;20210;-78
2022/03/21 04:34:58;;;;;;;1.97;1.80;;;;;;;;;;5106769;28;20222;-78
2022/03/21 04:37:25;;;;;;;0.20;0.20;;;;;;;;;;5095220;28;20269;-78
2022/03/21 04:39:51;;;;;;;0.20;0.20;;;;;;;;;;5106568;28;20221;-78
2022/03/21 04:42:18;;;;;;;2.20;2.10;;;;;;;;;;5095205;28;20234;-78
2022/03/21 04:44:48;;;;;;;0.40;0.40;;;;;;;;;;5106545;28;20266;-78
2022/03/21 04:47:14;;;;;;;0.20;0.20;;;;;;;;;;5095206;28;20258;-78
2022/03/21 04:49:41;;;;;;;0.30;0.30;;;;;;;;;;5106967;28;20413;-77
2022/03/21 04:52:08;;;;;;;0.30;0.30;;;;;;;;;;5094741;28;20239;-77
2022/03/21 04:54:34;;;;;;;0.23;0.23;;;;;;;;;;5106579;28;20202;-78
2022/03/21 04:57:00;;;;;;;0.30;0.30;;;;;;;;;;5095005;28;20308;-78
2022/03/21 04:59:26;;;;;;;0.20;0.20;;;;;;;;;;5106078;28;20218;-78
2022/03/21 05:01:54;;;;;;;0.63;0.63;;;;;;;;;;5094637;28;20258;-77
2022/03/21 05:04:22;;;;;;;6.00;5.80;;;;;;;;;;5105959;28;20270;-78
2022/03/21 05:06:48;;;;;;;0.20;0.20;;;;;;;;;;5094783;28;20242;-78
2022/03/21 05:09:14;;;;;;;0.30;0.30;;;;;;;;;;5105835;28;20272;-78
2022/03/21 05:11:41;;;;;;;16.43;15.13;;;;;;;;;;5094923;28;20483;-78
2022/03/21 05:14:07;;;;;;;0.20;0.20;;;;;;;;;;5106061;28;20237;-78
2022/03/21 05:16:33;;;;;;;0.93;0.93;;;;;;;;;;5094015;28;20618;-78
2022/03/21 05:19:01;;;;;;;0.83;0.83;;;;;;;;;;5105974;28;20250;-78
2022/03/21 05:21:28;;;;;;;0.50;0.50;;;;;;;;;;5094832;28;20242;-78
2022/03/21 05:32:15;;;;;;;0.20;0.20;;;;;;;;;;5094503;28;20260;-79
2022/03/21 05:37:29;;;;;;;0.43;0.43;;;;;;;;;;5094439;28;20421;-77
2022/03/21 05:42:40;;;;;;;0.60;0.60;;;;;;;;;;5105850;28;20252;-78
2022/03/21 05:45:07;;;;;;;0.20;0.20;;;;;;;;;;5094850;28;20532;-79
2022/03/21 05:48:50;;;;;;;0.40;0.40;;;;;;;;;;5104333;28;20221;-78
2022/03/21 05:50:22;;;;;;;0.20;0.20;;;;;;;;;;5094548;28;20183;-77
2022/03/21 05:52:48;;;;;;;0.20;0.20;;;;;;;;;;5104039;28;20286;-78
2022/03/21 05:55:17;;;;;;;0.50;0.50;;;;;;;;;;5094916;28;20294;-78
2022/03/21 05:57:43;;;;;;;0.20;0.20;;;;;;;;;;5104515;28;20206;-79
2022/03/21 06:00:22;;;;;;;0.30;0.30;;;;;;;;;;5103218;28;20363;-77
2022/03/21 06:02:50;;;;;;;0.17;0.17;;;;;;;;;;5105772;28;20413;-79
2022/03/21 06:05:16;;;;;;;2.60;2.50;;;;;;;;;;5094626;28;20201;-79
2022/03/21 06:07:45;;;;;;;0.20;0.20;;;;;;;;;;5104102;28;20555;-78
2022/03/21 06:10:12;;;;;;;0.57;0.57;;;;;;;;;;5094259;28;20199;-78
2022/03/21 06:12:38;;;;;;;0.43;0.43;;;;;;;;;;5104053;28;20282;-79
2022/03/21 06:15:04;;;;;;;0.37;0.37;;;;;;;;;;5104815;28;20199;-79
2022/03/21 06:17:36;;;;;;;0.20;0.20;;;;;;;;;;5076401;28;20378;-78
2022/03/21 06:20:02;;;;;;;0.67;0.67;;;;;;;;;;5104551;28;20198;-78
2022/03/21 06:22:28;;;;;;;0.20;0.20;;;;;;;;;;5093413;28;20247;-78
2022/03/21 06:24:56;;;;;;;0.20;0.20;;;;;;;;;;5104630;28;20248;-78
2022/03/21 06:27:22;;;;;;;0.70;0.70;;;;;;;;;;5093159;28;20476;-78
2022/03/21 06:29:48;;;;;;;1.40;1.40;;;;;;;;;;5104743;28;20221;-79
2022/03/21 06:32:15;;;;;;;0.30;0.30;;;;;;;;;;5093340;28;20282;-79
2022/03/21 06:34:41;;;;;;;0.20;0.20;;;;;;;;;;5104679;28;20445;-79
2022/03/21 06:37:08;;;;;;;1.60;1.53;;;;;;;;;;5093058;28;20574;-77
2022/03/21 06:39:35;;;;;;;2.50;2.40;;;;;;;;;;5104469;28;20226;-78
2022/03/21 06:42:03;;;;;;;0.20;0.20;;;;;;;;;;5092727;28;20234;-79
2022/03/21 06:44:29;;;;;;;0.50;0.50;;;;;;;;;;5103899;28;20233;-78
2022/03/21 06:46:58;;;;;;;0.20;0.20;;;;;;;;;;5092866;28;20344;-78
2022/03/21 06:49:29;;;;;;;1.60;1.60;;;;;;;;;;5104517;28;20202;-78
2022/03/21 06:51:56;;;;;;;0.17;0.17;;;;;;;;;;5092553;28;20441;-77
2022/03/21 06:54:22;;;;;;;1.27;1.27;;;;;;;;;;5104490;28;20202;-78
2022/03/21 06:56:48;;;;;;;0.20;0.20;;;;;;;;;;5092727;28;20313;-79
2022/03/21 06:59:16;;;;;;;0.10;0.10;;;;;;;;;;5103744;28;20202;-79
2022/03/21 07:01:42;;;;;;;0.20;0.20;;;;;;;;;;5092738;28;20463;-77
2022/03/21 07:04:10;;;;;;;0.20;0.20;;;;;;;;;;5103951;28;20233;-79
2022/03/21 07:06:37;;;;;;;0.20;0.20;;;;;;;;;;5092514;28;20254;-78
2022/03/21 07:09:03;;;;;;;1.60;1.60;;;;;;;;;;5103439;28;20505;-78
2022/03/21 07:11:31;;;;;;;6.40;5.20;;;;;;;;;;5092471;28;20242;-79
2022/03/21 07:13:57;;;;;;;0.73;0.73;;;;;;;;;;5103255;28;20204;-79
2022/03/21 07:16:25;;;;;;;0.40;0.40;;;;;;;;;;5092507;28;20263;-78
2022/03/21 07:18:52;;;;;;;0.13;0.13;;;;;;;;;;5103030;28;20202;-78
2022/03/21 07:21:19;;;;;;;0.20;0.20;;;;;;;;;;5092479;28;20240;-78
2022/03/21 07:23:46;;;;;;;1.17;1.17;;;;;;;;;;5103634;28;20208;-79
2022/03/21 07:26:12;;;;;;;0.20;0.20;;;;;;;;;;5093006;28;20280;-81
2022/03/21 07:28:39;;;;;;;1.90;1.80;;;;;;;;;;5103653;28;20204;-81
2022/03/21 07:31:09;;;;;;;0.20;0.20;;;;;;;;;;5092643;28;20237;-80
2022/03/21 07:33:39;;;;;;;0.53;0.53;;;;;;;;;;5103747;28;20200;-81
2022/03/21 07:36:06;;;;;;;0.93;0.87;;;;;;;;;;5092254;28;20248;-81
2022/03/21 07:38:32;;;;;;;0.30;0.30;;;;;;;;;;5102846;28;20283;-82
2022/03/21 07:41:00;;;;;;;0.20;0.20;;;;;;;;;;5092468;28;20260;-80
2022/03/21 07:43:30;;;;;;;0.10;0.10;;;;;;;;;;5102770;28;20204;-82
2022/03/21 07:49:02;;;;;;;0.40;0.40;;;;;;;;;;5041436;28;20424;-80
2022/03/21 07:51:31;;;;;;;0.10;0.10;;;;;;;;;;5019315;28;20612;-81
2022/03/21 07:54:13;;;;;;;0.90;0.87;;;;;;;;;;5021351;28;20258;-82
2022/03/21 07:56:41;;;;;;;0.67;0.67;;;;;;;;;;4972982;28;20249;-81
2022/03/21 07:59:26;;;;;;;0.30;0.30;;;;;;;;;;4962869;28;20210;-80
2022/03/21 08:01:54;;;;;;;0.20;0.20;;;;;;;;;;4950915;29;20246;-79
2022/03/21 08:04:22;;;;;;;0.10;0.10;;;;;;;;;;4962408;29;20221;-77
2022/03/21 08:06:48;;;;;;;1.50;1.40;;;;;;;;;;4953221;28;20274;-80
2022/03/21 08:09:15;;;;;;;0.50;0.50;;;;;;;;;;4962370;29;20210;-77
2022/03/21 08:11:50;;;;;;;1.10;1.10;;;;;;;;;;4927566;29;20243;-80
2022/03/21 08:14:17;;;;;;;1.00;1.00;;;;;;;;;;4924692;29;20231;-78
2022/03/21 08:16:43;;;;;;;0.10;0.10;;;;;;;;;;4920717;29;20257;-79
2022/03/21 08:19:10;;;;;;;3.33;3.23;;;;;;;;;;4978869;28;20206;-80
2022/03/21 08:21:40;;;;;;;0.20;0.20;;;;;;;;;;4971957;28;20250;-79
2022/03/21 08:24:07;;;;;;;1.07;1.07;;;;;;;;;;4981801;28;20221;-78
2022/03/21 08:26:35;;;;;;;0.97;0.83;;;;;;;;;;4984290;28;20471;-79
2022/03/21 08:29:15;;;;;;;0.83;0.83;;;;;;;;;;4994863;28;20502;-80
2022/03/21 08:32:06;;;;;;;0.37;0.37;;;;;;;;;;4990967;28;20235;-80
2022/03/21 08:34:36;;;;;;;0.53;0.53;;;;;;;;;;5001425;28;20218;-80
2022/03/21 08:37:33;;;;;;;0.30;0.30;;;;;;;;;;4980208;28;20245;-80
2022/03/21 08:40:01;;;;;;;0.30;0.30;;;;;;;;;;5001461;28;20432;-79
2022/03/21 08:42:30;;;;;;;0.20;0.20;;;;;;;;;;4989217;28;20242;-78
2022/03/21 08:45:12;;;;;;;0.77;0.77;;;;;;;;;;5001116;28;20213;-79
2022/03/21 08:47:39;;;;;;;0.50;0.50;;;;;;;;;;4991009;28;20260;-79
2022/03/21 08:50:06;;;;;;;0.20;0.20;;;;;;;;;;4997116;28;20225;-79
2022/03/21 08:52:33;;;;;;;0.10;0.10;;;;;;;;;;4988378;28;20229;-79
2022/03/21 08:55:01;;;;;;;0.20;0.20;;;;;;;;;;5004780;28;20214;-80
2022/03/21 08:57:27;;;;;;;0.93;0.93;;;;;;;;;;5008645;28;20250;-79
2022/03/21 08:59:54;;;;;;;0.33;0.33;;;;;;;;;;5024367;28;20258;-79
2022/03/21 09:02:21;;;;;;;0.20;0.20;;;;;;;;;;5006960;28;20237;-79
2022/03/21 09:04:52;;;;;;;3.90;3.57;;;;;;;;;;5043912;28;20203;-78
2022/03/21 09:07:20;;;;;;;0.27;0.27;;;;;;;;;;5048536;28;20249;-79
2022/03/21 09:13:22;;;;;;;;;;;;;;;;;;;;;
2022/03/21 09:25:06;;;;;;;;;;;;;;;;;;;;;
2022/03/21 09:27:38;;;;;;;1.10;1.10;;;;;;;;;;5092144;28;20535;-79
2022/03/21 09:35:53;;;;;;;0.13;0.13;;;;;;;;;;5475235;22;20241;-80
2022/03/21 09:38:19;;;;;;;0.80;0.80;;;;;;;;;;5074593;28;20209;-79
2022/03/21 09:40:49;;;;;;;0.30;0.30;;;;;;;;;;5068449;28;20239;-78
2022/03/21 09:43:15;;;;;;;0.53;0.53;;;;;;;;;;5073867;28;20238;-78
2022/03/21 09:45:42;;;;;;;1.40;0.67;;;;;;;;;;5069302;28;20247;-78
2022/03/21 09:48:09;;;;;;;0.67;0.67;;;;;;;;;;5073483;28;20201;-78
2022/03/21 09:50:36;;;;;;;0.10;0.10;;;;;;;;;;5070284;28;20316;-79
2022/03/21 09:53:02;;;;;;;1.03;0.53;;;;;;;;;;5072031;28;20238;-78
2022/03/21 09:55:28;;;;;;;0.10;0.10;;;;;;;;;;5071499;28;20239;-78
2022/03/21 09:57:56;;;;;;;0.43;0.43;;;;;;;;;;5070938;28;20214;-79
2022/03/21 10:00:23;;;;;;;0.53;0.47;;;;;;;;;;5071583;28;20208;-78
2022/03/21 10:02:49;;;;;;;0.10;0.10;;;;;;;;;;5069274;28;20218;-78
2022/03/21 10:05:32;;;;;;;0.87;0.87;;;;;;;;;;5072958;28;20272;-79
2022/03/21 10:08:09;;;;;;;0.10;0.10;;;;;;;;;;5071526;28;20389;-78
2022/03/21 10:10:37;;;;;;;1.20;0.47;;;;;;;;;;5065574;28;20248;-79
2022/03/21 10:13:11;;;;;;;0.10;0.10;;;;;;;;;;5042769;28;20230;-80
2022/03/21 10:15:39;;;;;;;3.60;3.03;;;;;;;;;;5028009;28;20251;-79
2022/03/21 10:18:32;;;;;;;0.30;0.30;;;;;;;;;;5022742;28;20517;-80
2022/03/21 10:21:15;;;;;;;0.33;0.33;;;;;;;;;;4991154;28;20243;-79
2022/03/21 10:23:44;;;;;;;1.27;1.27;;;;;;;;;;4964499;29;20301;-80
2022/03/21 10:26:27;;;;;;;0.10;0.10;;;;;;;;;;4954636;29;20249;-79
2022/03/21 10:29:00;;;;;;;0.10;0.10;;;;;;;;;;4964378;29;20211;-79
2022/03/21 10:31:38;;;;;;;0.10;0.10;;;;;;;;;;4943615;29;20251;-79
2022/03/21 10:34:06;;;;;;;0.10;0.10;;;;;;;;;;4956770;29;20269;-77
2022/03/21 10:36:33;;;;;;;0.77;0.77;;;;;;;;;;4918785;29;20504;-76
2022/03/21 10:39:09;;;;;;;0.70;0.70;;;;;;;;;;4921527;29;20279;-77
2022/03/21 10:41:36;;;;;;;0.53;0.53;;;;;;;;;;4914264;29;20333;-75
2022/03/21 10:44:05;;;;;;;0.27;0.27;;;;;;;;;;4960054;29;20286;-75
2022/03/21 10:46:31;;;;;;;0.53;0.53;;;;;;;;;;4943982;29;20472;-76
2022/03/21 10:49:07;;;;;;;0.33;0.33;;;;;;;;;;4958563;29;20218;-77
2022/03/21 10:51:49;;;;;;;0.63;0.63;;;;;;;;;;4968459;28;20250;-77
2022/03/21 10:54:35;;;;;;;1.90;1.80;;;;;;;;;;5061713;28;20281;-77
2022/03/21 10:57:01;;;;;;;0.30;0.30;;;;;;;;;;5036451;28;20335;-76
2022/03/21 10:59:29;;;;;;;0.10;0.10;;;;;;;;;;5063217;28;20235;-77
2022/03/21 11:02:09;;;;;;;1.40;1.33;;;;;;;;;;5037391;28;20323;-77
2022/03/21 11:04:36;;;;;;;1.33;1.33;;;;;;;;;;5063851;28;20258;-76
2022/03/21 11:07:02;;;;;;;1.43;1.40;;;;;;;;;;5037063;28;20247;-75
2022/03/21 11:09:29;;;;;;;0.77;0.67;;;;;;;;;;5062369;28;20237;-77
2022/03/21 11:11:56;;;;;;;0.63;0.63;;;;;;;;;;5036725;28;20244;-78
2022/03/21 11:14:23;;;;;;;0.10;0.10;;;;;;;;;;5061233;28;20207;-75
2022/03/21 11:16:52;;;;;;;0.10;0.10;;;;;;;;;;5037611;28;20443;-74
2022/03/21 11:19:18;;;;;;;0.43;0.43;;;;;;;;;;5061396;28;20244;-75
2022/03/21 11:21:45;;;;;;;0.27;0.27;;;;;;;;;;5038863;28;20252;-76
2022/03/21 11:24:12;;;;;;;0.10;0.10;;;;;;;;;;5060036;28;20278;-75
2022/03/21 11:26:43;;;;;;;0.47;0.47;;;;;;;;;;5038985;28;20241;-76
2022/03/21 11:29:17;;;;;;;0.10;0.10;;;;;;;;;;5060330;28;20432;-76
2022/03/21 11:31:51;;;;;;;0.00;0.00;;;;;;;;;;5038428;28;20247;-75
2022/03/21 11:34:27;;;;;;;0.10;0.10;;;;;;;;;;5061635;28;20288;-77
2022/03/21 11:36:54;;;;;;;0.00;0.00;;;;;;;;;;5037215;28;20245;-80
2022/03/21 11:39:21;;;;;;;0.83;0.83;;;;;;;;;;5062271;28;20243;-76
2022/03/21 11:41:58;;;;;;;0.03;0.03;;;;;;;;;;5037398;28;20247;-79
2022/03/21 11:44:24;;;;;;;0.10;0.10;;;;;;;;;;5062210;28;20227;-80
2022/03/21 11:46:50;;;;;;;0.30;0.30;;;;;;;;;;5037228;28;20304;-79
2022/03/21 11:49:35;;;;;;;0.10;0.10;;;;;;;;;;5061069;28;20302;-79
2022/03/21 11:52:05;;;;;;;0.10;0.10;;;;;;;;;;5035611;28;20444;-79
2022/03/21 11:54:34;;;;;;;1.93;1.93;;;;;;;;;;5063637;28;20230;-78
2022/03/21 11:57:02;;;;;;;0.57;0.57;;;;;;;;;;5035538;28;20292;-69
2022/03/21 11:59:48;;;;;;;0.10;0.10;;;;;;;;;;5062477;28;20538;-69
2022/03/21 12:02:33;;;;;;;0.20;0.20;;;;;;;;;;5034567;28;20402;-69
2022/03/21 12:05:00;;;;;;;0.00;0.00;;;;;;;;;;5063077;28;20398;-69
2022/03/21 12:07:31;;;;;;;0.10;0.10;;;;;;;;;;5034668;28;20237;-69
2022/03/21 12:09:58;;;;;;;0.10;0.10;;;;;;;;;;5062943;28;20269;-68
2022/03/21 12:12:46;;;;;;;0.30;0.30;;;;;;;;;;5034779;28;20288;-68
2022/03/21 12:15:14;;;;;;;0.13;0.13;;;;;;;;;;5050720;28;20215;-70
2022/03/21 12:17:47;;;;;;;1.03;1.03;;;;;;;;;;5046419;28;20510;-68
2022/03/21 12:20:14;;;;;;;0.10;0.10;;;;;;;;;;5051118;28;20199;-69
2022/03/21 12:22:46;;;;;;;0.10;0.10;;;;;;;;;;5046342;28;20254;-69
2022/03/21 12:25:14;;;;;;;0.10;0.10;;;;;;;;;;5052004;28;20221;-69
2022/03/21 12:27:42;;;;;;;0.10;0.10;;;;;;;;;;5050673;28;20210;-69
2022/03/21 12:30:27;;;;;;;0.10;0.10;;;;;;;;;;5055520;28;20204;-69
2022/03/21 12:32:54;;;;;;;0.93;0.93;;;;;;;;;;5052405;28;20225;-68
2022/03/21 12:35:42;;;;;;;0.10;0.10;;;;;;;;;;5053635;28;20233;-68
2022/03/21 12:38:10;;;;;;;0.07;0.07;;;;;;;;;;5054399;28;20242;-68
2022/03/21 12:40:38;;;;;;;1.07;1.07;;;;;;;;;;5051157;28;20260;-68
2022/03/21 12:43:06;;;;;;;0.10;0.10;;;;;;;;;;5053519;28;20302;-68
2022/03/21 12:45:32;;;;;;;0.10;0.10;;;;;;;;;;5051668;28;20287;-69
2022/03/21 12:47:59;;;;;;;0.07;0.07;;;;;;;;;;5052478;28;20505;-68
2022/03/21 12:50:27;;;;;;;10.77;2.73;;;;;;;;;;5052816;28;20239;-68
2022/03/21 12:52:54;;;;;;;0.10;0.10;;;;;;;;;;5051570;28;20213;-69
2022/03/21 12:55:22;;;;;;;0.10;0.10;;;;;;;;;;5053237;28;20239;-69
2022/03/21 12:57:55;;;;;;;0.20;0.20;;;;;;;;;;5051064;28;20208;-68
2022/03/21 13:00:22;;;;;;;0.10;0.10;;;;;;;;;;5053230;28;20270;-68
2022/03/21 13:02:48;;;;;;;6.57;6.17;;;;;;;;;;5050845;28;20291;-68
2022/03/21 13:10:44;;;;;;;0.60;0.60;;;;;;;;;;5049774;28;20559;-69
2022/03/21 13:13:12;;;;;;;0.20;0.20;;;;;;;;;;5054132;28;20228;-68
2022/03/21 13:15:40;;;;;;;0.10;0.10;;;;;;;;;;5051234;28;20268;-68
2022/03/21 13:18:06;;;;;;;0.10;0.10;;;;;;;;;;5052617;28;20270;-68
2022/03/21 13:20:34;;;;;;;2.43;2.33;;;;;;;;;;5051304;28;20314;-68
2022/03/21 13:23:01;;;;;;;0.80;0.80;;;;;;;;;;5052420;28;20224;-68
2022/03/21 13:25:29;;;;;;;0.10;0.10;;;;;;;;;;5051504;28;20419;-68
2022/03/21 13:28:11;;;;;;;0.40;0.40;;;;;;;;;;5051614;28;20207;-69
2022/03/21 13:30:39;;;;;;;0.13;0.13;;;;;;;;;;5050383;28;20248;-68
2022/03/21 13:33:06;;;;;;;0.10;0.10;;;;;;;;;;5053230;28;20204;-67
2022/03/21 13:35:32;;;;;;;0.23;0.23;;;;;;;;;;5050953;28;20243;-68
2022/03/21 13:38:03;;;;;;;0.50;0.50;;;;;;;;;;5051188;28;20214;-68
2022/03/21 13:40:29;;;;;;;1.23;1.17;;;;;;;;;;5051430;28;20548;-68
2022/03/21 13:42:56;;;;;;;0.17;0.17;;;;;;;;;;5051273;28;20294;-68
2022/03/21 13:45:24;;;;;;;0.10;0.10;;;;;;;;;;5052517;28;20247;-66
2022/03/21 13:47:51;;;;;;;0.40;0.40;;;;;;;;;;5050480;28;20215;-68
2022/03/21 13:50:18;;;;;;;0.10;0.10;;;;;;;;;;5052762;28;20204;-68
2022/03/21 13:52:46;;;;;;;0.10;0.10;;;;;;;;;;5049621;28;20230;-68
2022/03/21 13:55:13;;;;;;;0.80;0.80;;;;;;;;;;5053761;28;20492;-69
2022/03/21 13:57:44;;;;;;;0.30;0.30;;;;;;;;;;5048650;28;20204;-68
2022/03/21 14:00:11;;;;;;;0.10;0.10;;;;;;;;;;5053549;28;20207;-68
2022/03/21 14:02:42;;;;;;;0.20;0.20;;;;;;;;;;5048129;28;20388;-67
2022/03/21 14:05:13;;;;;;;0.70;0.50;;;;;;;;;;5053554;28;20211;-68
2022/03/21 14:07:39;;;;;;;0.10;0.10;;;;;;;;;;5049127;28;20402;-80
2022/03/21 14:10:12;;;;;;;0.10;0.10;;;;;;;;;;5054340;28;20207;-78
2022/03/21 14:12:41;;;;;;;0.00;0.00;;;;;;;;;;5048389;28;20203;-82
2022/03/21 14:15:07;;;;;;;0.57;0.57;;;;;;;;;;5053914;28;20226;-79
2022/03/21 14:17:35;;;;;;;0.10;0.10;;;;;;;;;;5047738;28;20513;-80
2022/03/21 14:20:29;;;;;;;0.10;0.10;;;;;;;;;;5064751;28;20234;-80
2022/03/21 14:23:22;;;;;;;0.67;0.67;;;;;;;;;;5042355;28;20227;-79
2022/03/21 14:29:03;;;;;;;0.03;0.03;;;;;;;;;;5043157;28;20246;-79
2022/03/21 14:31:52;;;;;;;0.73;0.63;;;;;;;;;;5032187;28;20255;-78
2022/03/21 14:34:21;;;;;;;0.20;0.20;;;;;;;;;;5042949;28;20223;-80
2022/03/21 14:36:53;;;;;;;0.40;0.40;;;;;;;;;;5031391;28;20247;-80
2022/03/21 14:42:41;;;;;;;0.10;0.10;;;;;;;;;;5011865;28;20248;-79
2022/03/21 14:45:10;;;;;;;0.20;0.20;;;;;;;;;;4992864;28;20202;-79
2022/03/21 14:47:37;;;;;;;0.40;0.40;;;;;;;;;;5022432;28;20205;-79
2022/03/21 14:50:03;;;;;;;0.70;0.70;;;;;;;;;;5022434;28;20217;-77
2022/03/21 14:52:30;;;;;;;0.10;0.10;;;;;;;;;;5011991;28;20307;-78
2022/03/21 14:54:57;;;;;;;0.40;0.40;;;;;;;;;;5021938;28;20262;-78
2022/03/21 14:57:24;;;;;;;0.53;0.53;;;;;;;;;;5011544;28;20248;-79
2022/03/21 14:59:51;;;;;;;0.10;0.10;;;;;;;;;;5021993;28;20211;-78
2022/03/21 15:02:20;;;;;;;0.10;0.10;;;;;;;;;;4995640;28;20564;-78
2022/03/21 15:04:46;;;;;;;0.10;0.10;;;;;;;;;;5021748;28;20240;-78
2022/03/21 15:07:16;;;;;;;0.10;0.10;;;;;;;;;;4987068;28;20248;-78
2022/03/21 15:12:26;;;;;;;1.27;1.17;;;;;;;;;;5008095;28;20451;-71
2022/03/21 15:14:53;;;;;;;0.10;0.10;;;;;;;;;;5001852;28;20280;-70
2022/03/21 15:17:21;;;;;;;0.10;0.10;;;;;;;;;;5007918;28;20309;-70
2022/03/21 15:19:47;;;;;;;0.10;0.10;;;;;;;;;;5001651;28;20691;-73
2022/03/21 15:22:14;;;;;;;0.20;0.20;;;;;;;;;;5007800;28;20244;-73
2022/03/21 15:24:40;;;;;;;0.97;0.60;;;;;;;;;;5001569;28;20225;-71
2022/03/21 15:27:07;;;;;;;0.50;0.50;;;;;;;;;;5007792;28;20252;-71
2022/03/21 15:29:34;;;;;;;0.20;0.20;;;;;;;;;;5001472;28;20209;-74
2022/03/21 15:32:00;;;;;;;0.10;0.10;;;;;;;;;;5025445;28;20261;-73
2022/03/21 15:34:28;;;;;;;1.50;1.43;;;;;;;;;;5062822;28;20235;-73
2022/03/21 15:42:23;;;;;;;0.10;0.10;;;;;;;;;;5034797;28;20301;-72
2022/03/21 15:44:49;;;;;;;0.00;0.00;;;;;;;;;;5063256;28;20252;-72
2022/03/21 15:47:16;;;;;;;0.77;0.77;;;;;;;;;;5034697;28;20242;-72
2022/03/21 15:49:45;;;;;;;0.10;0.10;;;;;;;;;;5063339;28;20234;-72
2022/03/21 15:52:12;;;;;;;0.10;0.10;;;;;;;;;;5034524;28;20334;-72
2022/03/21 15:54:39;;;;;;;0.10;0.10;;;;;;;;;;5063209;28;20234;-73
2022/03/21 15:57:05;;;;;;;0.10;0.10;;;;;;;;;;5034506;28;20579;-73